No1 Tokuyama — JK5318 — position and weather

sailwx.info

Track history (hours):
 
Tides and Currents Weather Stations Pressure Air Temp Water Temp Dewpoint Dewpoint Depression Visibility Wind Speed Wind Dir Waves Ship Positions

No1 Tokuyama

Last reported at 2017-Jan-23 12:32 UTC. Time now 2017-Jan-23 12:41 UTC.
Position N 34°39' E 135°27'.

Length 110 m; draft 7.2 m.

Type: Cargo ship. MMSI: 431400487.

Date/timePositionNaut miles runAvg speedWind from/ knotsBaromVisibWave heightAir tempDewpointWater temp
2017-Jan-23 12:32N 34°39' E 135°27'0 0.0
2017-Jan-23 11:32N 34°39' E 135°27'0 0.0
2017-Jan-23 10:32N 34°39' E 135°27'0 0.0
2017-Jan-23 09:26N 34°39' E 135°27'0 0.0
2017-Jan-23 08:26N 34°39' E 135°27'0 0.0
2017-Jan-23 06:33N 34°39' E 135°27'4 2.0
2017-Jan-23 04:30N 34°37' E 135°22'0 0.1
2017-Jan-23 03:33N 34°37' E 135°22'10 9.9
2017-Jan-23 02:32N 34°35' E 135°10'1313.1
2017-Jan-23 01:32N 34°35' E 134°54'10912.1
2017-Jan-22 16:32N 34°03' E 132°47'1212.2
2017-Jan-22 15:33N 33°54' E 132°38'1211.9
2017-Jan-22 14:33N 33°50' E 132°25'2310.9
2017-Jan-22 12:27N 33°50' E 131°57'2 0.1
2017-Jan-20 22:33N 33°51' E 131°55'1211.8
2017-Jan-20 21:33N 33°48' E 132°09'1414.1
2017-Jan-20 20:33N 33°51' E 132°26'1414.0
2017-Jan-20 19:33N 33°57' E 132°41'10911.9
2017-Jan-20 10:20N 34°33' E 134°46'911.0
2017-Jan-20 09:32N 34°36' E 134°56'1010.2
2017-Jan-20 08:33N 34°35' E 135°08'1211.9
2017-Jan-20 07:34N 34°37' E 135°22'4 3.9
2017-Jan-20 06:29N 34°39' E 135°27'0 0.0
2017-Jan-20 05:29N 34°39' E 135°27'0 0.0
2017-Jan-20 04:17N 34°39' E 135°27'0 0.0
2017-Jan-20 03:29N 34°39' E 135°27'0 0.0
2017-Jan-20 02:29N 34°39' E 135°27'0 0.0
2017-Jan-20 00:23N 34°39' E 135°27'1 0.8
2017-Jan-19 23:33N 34°39' E 135°26'1110.7
2017-Jan-19 22:33N 34°35' E 135°13'1312.6
2017-Jan-19 21:33N 34°37' E 134°58'1312.3
2017-Jan-19 20:32N 34°40' E 134°43'  
Track history (hours):
 
Tides and Currents Weather Stations Pressure Air Temp Water Temp Dewpoint Dewpoint Depression Visibility Wind Speed Wind Dir Waves Ship Positions

No1 Tokuyama

Last reported at 2017-Jan-23 12:32 UTC. Time now 2017-Jan-23 12:41 UTC.
Position N 34°39' E 135°27'.

Length 110 m; draft 7.2 m.

Type: Cargo ship. MMSI: 431400487.

Date/timePositionNaut miles runAvg speedWind from/ knotsBaromVisibWave heightAir tempDewpointWater temp
2017-Jan-23 12:32N 34°39' E 135°27'0 0.0
2017-Jan-23 11:32N 34°39' E 135°27'0 0.0
2017-Jan-23 10:32N 34°39' E 135°27'0 0.0
2017-Jan-23 09:26N 34°39' E 135°27'0 0.0
2017-Jan-23 08:26N 34°39' E 135°27'0 0.0
2017-Jan-23 06:33N 34°39' E 135°27'4 2.0
2017-Jan-23 04:30N 34°37' E 135°22'0 0.1
2017-Jan-23 03:33N 34°37' E 135°22'10 9.9
2017-Jan-23 02:32N 34°35' E 135°10'1313.1
2017-Jan-23 01:32N 34°35' E 134°54'10912.1
2017-Jan-22 16:32N 34°03' E 132°47'1212.2
2017-Jan-22 15:33N 33°54' E 132°38'1211.9
2017-Jan-22 14:33N 33°50' E 132°25'2310.9
2017-Jan-22 12:27N 33°50' E 131°57'2 0.1
2017-Jan-20 22:33N 33°51' E 131°55'1211.8
2017-Jan-20 21:33N 33°48' E 132°09'1414.1
2017-Jan-20 20:33N 33°51' E 132°26'1414.0
2017-Jan-20 19:33N 33°57' E 132°41'10911.9
2017-Jan-20 10:20N 34°33' E 134°46'911.0
2017-Jan-20 09:32N 34°36' E 134°56'1010.2
2017-Jan-20 08:33N 34°35' E 135°08'1211.9
2017-Jan-20 07:34N 34°37' E 135°22'4 3.9
2017-Jan-20 06:29N 34°39' E 135°27'0 0.0
2017-Jan-20 05:29N 34°39' E 135°27'0 0.0
2017-Jan-20 04:17N 34°39' E 135°27'0 0.0
2017-Jan-20 03:29N 34°39' E 135°27'0 0.0
2017-Jan-20 02:29N 34°39' E 135°27'0 0.0
2017-Jan-20 00:23N 34°39' E 135°27'1 0.8
2017-Jan-19 23:33N 34°39' E 135°26'1110.7
2017-Jan-19 22:33N 34°35' E 135°13'1312.6
2017-Jan-19 21:33N 34°37' E 134°58'1312.3
2017-Jan-19 20:32N 34°40' E 134°43'  

Dump ship's entire track history